Time;durP1;ratioP1;P1;durP2;ratioP2;P2;SDS_P1;SDS_P2;PMS_P1;PMS_P2;Temp;Humidity;BMP_temperature;BMP_pressure;BME280_temperature;BME280_humidity;BME280_pressure;Samples;Min_cycle;Max_cycle;Signal;HPM_P1;HPM_P2
2020/12/09 00:01:29;;;;;;;7.32;1.52;;;;;;;13.50;54.01;100521.94;5028281;28;20033;-39
2020/12/09 00:03:57;;;;;;;4.10;1.20;;;;;;;13.28;56.64;100522.91;5028161;28;20120;-40
2020/12/09 00:06:26;;;;;;;5.65;1.58;;;;;;;13.39;54.87;100530.00;5026530;28;20541;-39
2020/12/09 00:08:51;;;;;;;4.53;1.90;;;;;;;13.33;55.24;100522.16;5028061;28;20083;-39
2020/12/09 00:11:17;;;;;;;7.57;2.33;;;;;;;13.39;55.16;100526.47;5027851;28;20049;-43
2020/12/09 00:13:43;;;;;;;5.95;1.80;;;;;;;13.48;55.20;100527.63;5028444;28;20047;-40
2020/12/09 00:16:09;;;;;;;4.55;1.83;;;;;;;13.40;55.36;100522.72;5028372;28;20112;-41
2020/12/09 00:18:37;;;;;;;11.23;2.30;;;;;;;13.38;55.65;100531.06;5027947;28;20908;-39
2020/12/09 00:21:02;;;;;;;2.67;1.48;;;;;;;13.39;55.98;100526.47;5027922;28;20038;-40
2020/12/09 00:23:28;;;;;;;6.85;3.03;;;;;;;13.55;55.02;100522.78;5027795;28;20029;-41
2020/12/09 00:25:53;;;;;;;19.95;3.10;;;;;;;13.56;54.64;100532.47;5028071;28;20507;-42
2020/12/09 00:28:19;;;;;;;17.80;3.78;;;;;;;13.37;56.43;100534.03;5027790;28;20227;-38
2020/12/09 00:30:44;;;;;;;4.35;2.03;;;;;;;13.35;55.45;100542.34;5027217;28;20037;-41
2020/12/09 00:33:11;;;;;;;2.88;1.23;;;;;;;13.33;57.38;100544.50;5025490;28;20072;-41
2020/12/09 00:35:37;;;;;;;6.00;2.28;;;;;;;13.42;55.21;100553.69;5027478;28;20417;-39
2020/12/09 00:38:06;;;;;;;5.68;2.30;;;;;;;13.37;54.99;100539.41;5027667;28;20041;-40
2020/12/09 00:40:32;;;;;;;4.40;1.40;;;;;;;13.32;57.58;100547.44;5027925;28;20155;-39
2020/12/09 00:42:58;;;;;;;9.50;1.73;;;;;;;13.48;56.52;100554.56;5027502;28;20033;-39
2020/12/09 00:45:24;;;;;;;3.15;1.45;;;;;;;13.39;56.85;100550.72;5027432;28;20421;-38
2020/12/09 00:47:49;;;;;;;2.38;1.70;;;;;;;13.24;58.13;100568.38;5027134;28;20136;-41
2020/12/09 00:52:41;;;;;;;11.55;1.35;;;;;;;13.22;56.81;100567.03;5019493;28;20091;-39
2020/12/09 00:55:07;;;;;;;5.85;2.65;;;;;;;13.24;55.28;100560.31;5027487;28;20045;-39
2020/12/09 00:57:33;;;;;;;3.95;3.08;;;;;;;13.41;56.00;100551.25;5027293;28;20041;-39
2020/12/09 00:59:58;;;;;;;3.05;1.15;;;;;;;13.43;55.52;100554.53;5027359;28;20053;-40
2020/12/09 01:02:24;;;;;;;9.18;1.95;;;;;;;13.18;56.39;100574.00;5027396;28;20029;-39
2020/12/09 01:04:50;;;;;;;5.45;2.55;;;;;;;13.31;57.02;100565.50;5027358;28;20071;-38
2020/12/09 01:07:19;;;;;;;3.33;2.25;;;;;;;13.46;55.49;100561.25;5027425;28;20470;-40
2020/12/09 01:09:45;;;;;;;6.03;2.33;;;;;;;13.31;55.61;100565.50;5027396;28;20116;-38
2020/12/09 01:12:12;;;;;;;3.15;1.13;;;;;;;13.39;55.51;100566.88;5027335;28;20109;-39
2020/12/09 01:14:38;;;;;;;4.43;1.70;;;;;;;13.42;54.77;100558.28;5021945;28;20128;-41
2020/12/09 01:17:03;;;;;;;5.55;0.85;;;;;;;13.40;56.27;100565.81;5025118;28;20033;-39
2020/12/09 01:19:29;;;;;;;11.38;3.92;;;;;;;13.41;55.30;100562.03;5027189;28;20393;-39
2020/12/09 01:21:54;;;;;;;4.72;1.52;;;;;;;13.30;57.94;100561.16;5027609;28;20488;-39
2020/12/09 01:24:20;;;;;;;10.60;2.08;;;;;;;13.23;56.46;100569.44;5027348;28;20042;-39
2020/12/09 01:26:46;;;;;;;4.47;1.88;;;;;;;13.27;54.96;100571.63;5027017;28;20124;-40
2020/12/09 01:29:12;;;;;;;4.22;2.45;;;;;;;13.13;55.47;100579.34;5027122;28;20037;-42
2020/12/09 01:31:38;;;;;;;8.63;1.95;;;;;;;13.18;57.21;100574.00;5027036;28;20060;-40
2020/12/09 01:34:03;;;;;;;4.88;1.08;;;;;;;13.29;55.42;100585.63;5027177;28;20048;-39
2020/12/09 01:36:29;;;;;;;3.72;1.20;;;;;;;13.30;54.38;100580.00;5027139;28;20033;-38
2020/12/09 01:38:55;;;;;;;1.85;0.68;;;;;;;13.09;53.19;100583.66;5026732;28;20042;-38
2020/12/09 01:41:24;;;;;;;4.03;1.17;;;;;;;13.18;53.50;100577.53;5025742;28;20037;-39
2020/12/09 01:43:51;;;;;;;2.40;0.52;;;;;;;13.09;52.73;100591.72;5026974;28;20324;-39
2020/12/09 01:46:37;;;;;;;4.15;1.35;;;;;;;13.03;53.91;100593.56;5025342;28;20048;-40
2020/12/09 01:49:04;;;;;;;4.35;2.15;;;;;;;13.18;54.70;100580.22;5025273;28;20053;-40
2020/12/09 01:51:30;;;;;;;5.65;2.15;;;;;;;13.24;53.80;100581.84;5027172;28;20026;-38
2020/12/09 01:53:59;;;;;;;3.40;1.42;;;;;;;13.23;53.97;100596.38;5027294;28;20389;-40
2020/12/09 01:56:26;;;;;;;9.50;0.95;;;;;;;13.20;55.22;100609.53;5026801;28;20044;-39
2020/12/09 01:58:53;;;;;;;6.70;2.47;;;;;;;13.09;53.26;100597.91;5030490;28;20518;-40
2020/12/09 02:01:19;;;;;;;12.20;1.20;;;;;;;13.28;53.20;100592.09;5030226;28;20048;-42
2020/12/09 02:03:49;;;;;;;2.58;1.13;;;;;;;13.26;53.28;100602.34;5030595;28;20120;-42
2020/12/09 02:06:16;;;;;;;8.20;2.15;;;;;;;13.19;54.66;100613.31;5030947;28;20466;-39
2020/12/09 02:08:41;;;;;;;3.20;0.88;;;;;;;13.05;54.28;100608.38;5022591;28;20505;-40
2020/12/09 02:11:08;;;;;;;4.78;1.67;;;;;;;12.98;57.76;100601.63;5029894;28;20051;-39
2020/12/09 02:13:33;;;;;;;5.88;3.38;;;;;;;13.02;54.73;100608.09;5030057;28;20041;-39
2020/12/09 02:16:00;;;;;;;3.13;1.02;;;;;;;13.03;54.04;100609.72;5031141;28;20090;-44
2020/12/09 02:18:27;;;;;;;5.97;2.22;;;;;;;12.93;58.77;100605.06;5030151;28;20033;-40
2020/12/09 02:20:53;;;;;;;10.98;2.28;;;;;;;13.04;53.79;100604.09;5030285;28;20440;-39
2020/12/09 02:23:18;;;;;;;2.22;0.75;;;;;;;13.09;53.18;100611.38;5030066;28;20033;-43
2020/12/09 02:25:45;;;;;;;6.78;2.22;;;;;;;13.08;54.50;100608.94;5030417;28;20140;-39
2020/12/09 02:28:11;;;;;;;7.05;2.15;;;;;;;13.07;54.04;100601.94;5029828;28;20077;-40
2020/12/09 02:30:36;;;;;;;8.30;2.20;;;;;;;13.27;53.77;100609.31;5030052;28;20385;-40
2020/12/09 02:33:02;;;;;;;6.47;1.75;;;;;;;13.22;54.63;100608.22;5025371;28;20075;-39
2020/12/09 02:35:27;;;;;;;1.15;0.70;;;;;;;13.08;57.75;100608.94;5029636;28;20470;-39
2020/12/09 02:37:53;;;;;;;1.50;0.90;;;;;;;13.01;56.49;100595.72;5029930;28;20128;-39
2020/12/09 02:40:23;;;;;;;5.70;1.38;;;;;;;13.12;54.90;100605.47;5029419;28;20091;-39
2020/12/09 02:42:48;;;;;;;7.00;1.65;;;;;;;13.19;55.22;100603.34;5029844;28;20030;-39
2020/12/09 02:45:15;;;;;;;7.65;2.60;;;;;;;13.17;55.93;100599.31;5029853;28;20115;-38
2020/12/09 02:47:41;;;;;;;9.85;2.83;;;;;;;13.34;54.91;100596.47;5021614;28;20595;-41
2020/12/09 02:50:07;;;;;;;9.48;2.45;;;;;;;13.47;55.20;100596.00;5029559;28;20053;-38
2020/12/09 02:52:32;;;;;;;9.35;2.58;;;;;;;13.33;55.85;100597.56;5029892;28;20055;-44
2020/12/09 02:54:58;;;;;;;3.78;0.88;;;;;;;13.24;56.74;100607.97;5029512;28;20731;-41
2020/12/09 02:57:23;;;;;;;2.45;1.33;;;;;;;13.43;55.49;100595.72;5029552;28;20038;-39
2020/12/09 02:59:49;;;;;;;4.60;1.90;;;;;;;13.34;56.04;100604.53;5029570;28;20428;-38
2020/12/09 03:02:15;;;;;;;3.22;0.52;;;;;;;13.19;57.85;100610.63;5029828;28;20077;-39
2020/12/09 03:04:40;;;;;;;8.07;1.27;;;;;;;13.07;57.49;100608.13;5021419;28;20053;-42
2020/12/09 03:07:06;;;;;;;2.80;2.05;;;;;;;13.15;56.63;100607.66;5029534;28;20036;-42
2020/12/09 03:09:31;;;;;;;5.90;2.50;;;;;;;13.30;56.48;100608.81;5028861;28;20095;-39
2020/12/09 03:11:57;;;;;;;7.10;1.23;;;;;;;13.27;56.58;100607.47;5029230;28;20108;-37
2020/12/09 03:14:23;;;;;;;7.72;1.10;;;;;;;13.22;57.24;100612.81;5029505;28;20099;-39
2020/12/09 03:16:48;;;;;;;2.72;1.17;;;;;;;13.37;56.83;100604.03;5029433;28;20047;-39
2020/12/09 03:19:14;;;;;;;3.08;1.45;;;;;;;13.46;56.66;100613.22;5029055;28;20087;-45
2020/12/09 03:21:43;;;;;;;3.22;1.40;;;;;;;13.32;55.97;100609.38;5028968;28;20616;-41
2020/12/09 03:24:11;;;;;;;11.60;3.22;;;;;;;13.27;56.58;100606.63;5029030;28;20038;-39
2020/12/09 03:26:37;;;;;;;8.68;2.05;;;;;;;13.24;56.79;100616.06;5028809;28;20025;-41
2020/12/09 03:29:03;;;;;;;5.80;1.50;;;;;;;13.15;56.77;100623.00;5028709;28;20103;-39
2020/12/09 03:31:28;;;;;;;8.60;2.20;;;;;;;13.19;56.79;100619.50;5028663;28;20470;-40
2020/12/09 03:33:54;;;;;;;1.80;0.60;;;;;;;13.21;56.90;100621.94;5027281;28;20060;-41
2020/12/09 03:36:19;;;;;;;1.63;1.08;;;;;;;13.17;56.55;100621.66;5028559;28;20137;-45
2020/12/09 03:38:45;;;;;;;18.05;2.28;;;;;;;13.10;57.28;100623.78;5028164;28;20029;-42
2020/12/09 03:41:10;;;;;;;8.18;3.22;;;;;;;13.01;57.97;100622.63;5025807;28;20095;-40
2020/12/09 03:43:36;;;;;;;4.55;1.52;;;;;;;13.18;56.35;100622.47;5028268;28;20037;-41
2020/12/09 03:46:01;;;;;;;2.15;0.80;;;;;;;12.92;56.52;100629.53;5029139;28;20079;-42
2020/12/09 03:48:27;;;;;;;5.38;1.35;;;;;;;13.09;56.65;100634.78;5028779;28;20108;-41
2020/12/09 03:50:52;;;;;;;6.68;0.75;;;;;;;13.13;55.71;100625.94;5027679;28;20059;-41
2020/12/09 03:53:18;;;;;;;1.40;1.20;;;;;;;13.31;55.07;100634.69;5027795;28;20029;-45
2020/12/09 03:55:43;;;;;;;3.38;1.02;;;;;;;13.19;56.15;100630.28;5028277;28;20092;-41
2020/12/09 03:58:09;;;;;;;1.80;0.73;;;;;;;13.17;55.70;100632.44;5028688;28;20056;-39
2020/12/09 04:00:34;;;;;;;4.18;2.47;;;;;;;13.04;56.38;100622.09;5028235;28;20437;-39
2020/12/09 04:03:00;;;;;;;3.08;1.08;;;;;;;13.07;56.85;100636.94;5028240;28;20037;-40
2020/12/09 04:05:25;;;;;;;7.60;1.02;;;;;;;13.24;56.13;100624.94;5028787;28;20445;-43
2020/12/09 04:07:51;;;;;;;3.22;1.70;;;;;;;12.90;55.96;100631.69;5028515;28;20029;-39
2020/12/09 04:10:17;;;;;;;3.88;1.48;;;;;;;12.96;58.12;100638.75;5028113;28;20458;-42
2020/12/09 04:12:43;;;;;;;3.30;0.63;;;;;;;13.03;58.40;100633.94;5027992;28;20394;-42
2020/12/09 04:15:08;;;;;;;1.83;0.50;;;;;;;13.18;55.72;100644.81;5028110;28;20041;-41
2020/12/09 04:17:34;;;;;;;2.03;1.10;;;;;;;13.11;55.56;100638.81;5027966;28;20041;-39
2020/12/09 04:19:59;;;;;;;8.90;2.30;;;;;;;13.04;56.89;100638.25;5027648;28;20378;-41
2020/12/09 04:22:25;;;;;;;0.40;0.22;;;;;;;13.07;58.41;100648.50;5027897;28;20091;-40
2020/12/09 04:24:50;;;;;;;18.25;2.17;;;;;;;13.05;56.93;100637.19;5027571;28;20046;-40
2020/12/09 04:27:16;;;;;;;4.03;1.38;;;;;;;13.01;56.56;100633.41;5027983;28;20145;-42
2020/12/09 04:29:41;;;;;;;9.18;1.42;;;;;;;13.05;56.94;100637.19;5027534;28;20041;-42
2020/12/09 04:32:07;;;;;;;2.78;1.35;;;;;;;12.92;56.35;100637.63;5027880;28;20045;-41
2020/12/09 04:34:33;;;;;;;4.47;0.85;;;;;;;13.10;56.11;100644.50;5027475;28;20045;-43
2020/12/09 04:37:01;;;;;;;5.47;1.25;;;;;;;13.03;56.60;100636.63;5027859;28;20041;-39
2020/12/09 04:39:27;;;;;;;6.60;0.88;;;;;;;13.19;56.54;100640.25;5027751;28;20095;-41
2020/12/09 04:41:53;;;;;;;7.85;1.42;;;;;;;13.24;56.14;100632.22;5027805;28;20057;-41
2020/12/09 04:44:19;;;;;;;6.95;1.60;;;;;;;13.23;55.94;100635.97;5027926;28;20045;-42
2020/12/09 04:46:50;;;;;;;4.38;1.35;;;;;;;13.10;55.14;100637.22;5027645;28;20068;-39
2020/12/09 04:49:18;;;;;;;2.90;0.98;;;;;;;13.17;56.48;100647.78;5027112;28;20068;-44
2020/12/09 04:52:25;;;;;;;1.35;0.90;;;;;;;12.94;56.96;100646.22;5027482;28;20037;-41
2020/12/09 04:54:53;;;;;;;4.22;1.38;;;;;;;13.04;56.47;100641.78;5020773;28;20053;-43
2020/12/09 04:57:37;;;;;;;3.83;1.85;;;;;;;13.13;56.44;100644.78;5027379;28;20037;-41
2020/12/09 05:00:07;;;;;;;5.30;1.15;;;;;;;13.19;57.17;100637.56;5027409;28;20196;-39
2020/12/09 05:02:44;;;;;;;7.72;2.53;;;;;;;13.28;56.62;100640.56;5027725;28;20045;-41
2020/12/09 05:05:15;;;;;;;1.35;0.70;;;;;;;13.21;56.29;100646.19;5027594;28;20029;-39
2020/12/09 05:07:51;;;;;;;4.97;0.80;;;;;;;12.98;57.00;100641.97;5023888;28;20819;-38
2020/12/09 05:10:18;;;;;;;3.28;0.70;;;;;;;12.98;58.28;100636.59;5027411;28;20073;-40
2020/12/09 05:12:49;;;;;;;1.58;1.33;;;;;;;13.27;55.89;100636.25;5027667;28;20040;-39
2020/12/09 05:15:18;;;;;;;8.60;1.63;;;;;;;13.29;55.52;100634.94;5027599;28;20152;-39
2020/12/09 05:17:54;;;;;;;1.77;0.95;;;;;;;13.33;55.95;100640.63;5020056;28;20021;-42
2020/12/09 05:20:34;;;;;;;4.28;0.75;;;;;;;13.18;55.55;100652.91;5027144;28;20045;-39
2020/12/09 05:23:00;;;;;;;3.47;0.95;;;;;;;13.01;58.02;100654.94;5027863;28;20105;-41
2020/12/09 05:25:27;;;;;;;3.80;1.35;;;;;;;12.91;57.70;100655.66;5026781;28;20056;-45
2020/12/09 05:27:56;;;;;;;8.98;2.08;;;;;;;13.01;56.20;100663.81;5027732;28;20063;-39
2020/12/09 05:30:48;;;;;;;4.47;1.20;;;;;;;12.95;57.79;100658.63;5026279;28;20040;-38
2020/12/09 05:33:16;;;;;;;11.55;2.75;;;;;;;13.18;55.52;100660.97;5028888;28;20040;-41
2020/12/09 05:35:42;;;;;;;6.53;0.95;;;;;;;13.18;55.50;100647.53;5023265;28;20052;-41
2020/12/09 05:38:07;;;;;;;3.88;1.80;;;;;;;13.12;55.91;100645.84;5031107;28;20037;-44
2020/12/09 05:40:33;;;;;;;10.35;3.85;;;;;;;13.13;56.11;100670.88;5029793;28;20119;-41
2020/12/09 05:42:58;;;;;;;0.88;0.30;;;;;;;13.05;57.03;100667.59;5030583;28;20061;-41
2020/12/09 05:45:24;;;;;;;1.67;0.50;;;;;;;12.98;57.86;100674.28;5030879;28;20390;-39
2020/12/09 05:47:50;;;;;;;2.90;1.20;;;;;;;13.11;56.93;100668.44;5030558;28;20632;-39
2020/12/09 05:50:15;;;;;;;4.72;1.33;;;;;;;13.27;56.11;100673.94;5029911;28;20057;-42
2020/12/09 05:52:41;;;;;;;4.18;0.95;;;;;;;13.05;57.13;100666.78;5022241;28;20052;-43
2020/12/09 05:55:07;;;;;;;4.97;1.05;;;;;;;12.94;56.81;100673.97;5030334;28;20432;-41
2020/12/09 05:57:32;;;;;;;5.35;1.17;;;;;;;13.00;56.58;100672.94;5030453;28;20055;-40
2020/12/09 05:59:57;;;;;;;5.03;1.55;;;;;;;12.93;57.20;100683.09;5030915;28;20073;-42
2020/12/09 06:02:28;;;;;;;8.48;1.92;;;;;;;13.17;55.53;100675.50;5030751;28;20033;-41
2020/12/09 06:04:58;;;;;;;1.83;0.60;;;;;;;13.10;56.23;100660.66;5030671;28;20044;-42
2020/12/09 06:07:25;;;;;;;5.22;1.95;;;;;;;12.96;56.12;100662.97;5030103;28;20041;-38
2020/12/09 06:10:00;;;;;;;11.95;2.47;;;;;;;13.08;56.58;100665.44;5030117;28;20041;-41
2020/12/09 06:12:26;;;;;;;4.32;1.63;;;;;;;13.09;55.54;100667.09;5030366;28;20030;-39
2020/12/09 06:15:12;;;;;;;3.97;1.23;;;;;;;12.88;56.82;100675.00;5030321;28;20094;-42
2020/12/09 06:17:37;;;;;;;2.10;1.15;;;;;;;12.89;57.13;100676.63;5030148;28;20045;-39
2020/12/09 06:20:03;;;;;;;2.88;1.75;;;;;;;12.84;57.71;100668.50;5030257;28;20057;-42
2020/12/09 06:22:31;;;;;;;7.10;2.13;;;;;;;13.10;56.37;100668.72;5030135;28;20462;-39
2020/12/09 06:25:02;;;;;;;1.95;1.63;;;;;;;12.95;57.54;100669.41;5030074;28;20033;-42
2020/12/09 06:27:32;;;;;;;0.30;0.25;;;;;;;12.99;58.39;100673.19;5029817;28;20086;-39
2020/12/09 06:29:58;;;;;;;5.82;1.83;;;;;;;13.13;57.84;100663.63;5029605;28;20045;-42
2020/12/09 06:32:23;;;;;;;5.85;2.55;;;;;;;13.12;58.09;100671.97;5029957;28;20397;-42
2020/12/09 06:35:19;;;;;;;4.00;0.90;;;;;;;12.89;59.26;100667.75;5029809;28;20355;-42
2020/12/09 06:38:09;;;;;;;4.25;2.00;;;;;;;13.02;58.47;100661.91;5028299;28;20049;-41
2020/12/09 06:40:42;;;;;;;5.80;2.30;;;;;;;12.96;58.47;100673.72;5029480;28;20090;-43
2020/12/09 06:43:11;;;;;;;8.23;2.60;;;;;;;13.14;58.48;100675.22;5029045;28;20049;-39
2020/12/09 06:45:41;;;;;;;5.72;2.30;;;;;;;13.12;58.47;100680.03;5029225;28;20466;-41
2020/12/09 06:48:11;;;;;;;7.53;2.72;;;;;;;13.04;58.55;100681.31;5029417;28;20044;-41
2020/12/09 06:50:37;;;;;;;7.35;3.58;;;;;;;13.16;57.86;100687.31;5028818;28;20081;-40
2020/12/09 06:53:15;;;;;;;5.10;0.93;;;;;;;13.05;58.88;100691.03;5029347;28;20034;-42
2020/12/09 06:55:41;;;;;;;7.45;1.98;;;;;;;12.91;57.81;100698.69;5021624;28;20095;-41
2020/12/09 06:58:23;;;;;;;10.43;2.22;;;;;;;12.99;58.01;100700.09;5029485;28;20044;-42
2020/12/09 07:01:03;;;;;;;8.20;4.78;;;;;;;12.91;59.57;100703.28;5029084;28;20042;-39
2020/12/09 07:03:29;;;;;;;17.92;3.67;;;;;;;12.84;59.50;100704.28;5029029;28;20373;-40
2020/12/09 07:05:59;;;;;;;13.35;1.95;;;;;;;12.91;59.54;100704.09;5029554;28;20104;-40
2020/12/09 07:08:24;;;;;;;2.50;1.42;;;;;;;12.85;57.66;100711.31;5029361;28;20393;-42
2020/12/09 07:10:50;;;;;;;10.50;1.63;;;;;;;13.01;57.11;100712.25;5029263;28;20037;-41
2020/12/09 07:13:18;;;;;;;6.47;2.70;;;;;;;13.02;56.72;100718.44;5028392;28;20037;-44
2020/12/09 07:15:50;;;;;;;1.50;0.93;;;;;;;13.09;57.59;100721.72;5021812;28;20474;-42
2020/12/09 07:18:16;;;;;;;11.85;3.97;;;;;;;13.11;57.12;100733.03;5028591;28;20120;-42
2020/12/09 07:20:42;;;;;;;5.63;0.93;;;;;;;12.95;57.24;100732.09;5029047;28;20141;-41
2020/12/09 07:23:08;;;;;;;5.97;0.43;;;;;;;13.03;57.66;100738.91;5028512;28;20041;-42
2020/12/09 07:25:35;;;;;;;0.95;0.40;;;;;;;12.99;58.15;100729.72;5029433;28;20042;-39
2020/12/09 07:28:01;;;;;;;3.80;1.40;;;;;;;13.02;56.74;100738.09;5030458;28;20490;-44
2020/12/09 07:30:27;;;;;;;5.45;1.73;;;;;;;13.12;56.29;100741.97;5032348;28;20037;-38
2020/12/09 07:32:54;;;;;;;4.20;2.90;;;;;;;13.18;56.14;100732.84;5031802;28;20040;-40
2020/12/09 07:35:21;;;;;;;7.28;1.85;;;;;;;13.03;56.90;100733.53;5032306;28;20045;-39
2020/12/09 07:37:51;;;;;;;16.00;2.40;;;;;;;13.08;56.73;100740.81;5032464;28;20484;-42
2020/12/09 07:40:25;;;;;;;5.18;2.03;;;;;;;13.12;56.46;100740.06;5031303;28;20045;-41
2020/12/09 07:43:10;;;;;;;5.80;2.10;;;;;;;13.11;56.33;100741.13;5025029;28;20457;-41
2020/12/09 07:45:41;;;;;;;2.13;1.15;;;;;;;13.17;56.27;100747.38;5032135;28;20059;-39
2020/12/09 07:48:18;;;;;;;3.35;1.48;;;;;;;13.11;56.15;100749.19;5031320;28;20496;-39
2020/12/09 07:50:52;;;;;;;12.02;4.18;;;;;;;13.06;56.22;100749.19;5023137;28;20053;-40
2020/12/09 07:53:19;;;;;;;4.85;1.52;;;;;;;12.91;58.03;100741.75;5032343;28;20064;-38
2020/12/09 07:55:44;;;;;;;6.95;2.35;;;;;;;12.95;57.48;100755.53;5031580;28;20207;-38
2020/12/09 07:58:11;;;;;;;0.85;0.63;;;;;;;13.00;57.45;100752.88;5031950;28;20377;-39
2020/12/09 08:00:45;;;;;;;4.50;1.42;;;;;;;12.85;57.25;100751.66;5032037;28;20064;-39
2020/12/09 08:03:16;;;;;;;7.15;1.10;;;;;;;12.95;58.47;100758.22;5031727;28;20397;-44
2020/12/09 08:05:42;;;;;;;;;;;;;;;13.09;57.51;100756.72;5032110;28;20461;-41
2020/12/09 08:08:17;;;;;;;14.43;2.33;;;;;;;13.20;57.15;100754.94;5031989;28;19967;-41
2020/12/09 08:10:44;;;;;;;6.45;3.25;;;;;;;13.17;57.08;100760.84;5031777;28;20080;-41
2020/12/09 08:13:20;;;;;;;6.93;1.63;;;;;;;12.96;56.59;100757.16;5031435;28;20060;-38
2020/12/09 08:15:59;;;;;;;10.82;1.48;;;;;;;12.84;59.23;100770.75;5031866;28;20492;-40
2020/12/09 08:18:25;;;;;;;11.55;1.95;;;;;;;12.81;58.79;100769.38;5032106;28;20030;-40
2020/12/09 08:20:52;;;;;;;6.63;2.00;;;;;;;12.93;59.09;100773.81;5031729;28;20478;-42
2020/12/09 08:23:18;;;;;;;5.38;1.88;;;;;;;12.79;58.93;100768.81;5031533;28;20466;-45
2020/12/09 08:25:47;;;;;;;7.50;1.48;;;;;;;12.91;58.66;100775.94;5031720;28;20033;-41
2020/12/09 08:28:12;;;;;;;5.22;1.15;;;;;;;12.85;58.89;100781.28;5031459;28;20029;-41
2020/12/09 08:30:38;;;;;;;4.03;2.20;;;;;;;12.81;59.42;100779.31;5031391;28;20132;-42
2020/12/09 08:33:10;;;;;;;11.27;3.17;;;;;;;12.93;58.88;100788.06;5031403;28;20029;-39
2020/12/09 08:35:59;;;;;;;13.77;9.93;;;;;;;13.03;58.87;100790.84;5031467;28;20056;-40
2020/12/09 08:38:33;;;;;;;9.25;5.32;;;;;;;12.99;58.90;100780.84;5030934;28;20037;-39
2020/12/09 08:41:02;;;;;;;12.13;3.70;;;;;;;12.83;58.65;100788.78;5031269;28;20064;-40
2020/12/09 08:43:30;;;;;;;7.18;1.40;;;;;;;12.73;60.17;100788.66;5031112;28;20076;-40
2020/12/09 08:45:57;;;;;;;2.03;1.30;;;;;;;12.90;58.51;100798.53;5031024;28;20053;-43
2020/12/09 08:48:23;;;;;;;14.43;2.22;;;;;;;12.92;58.44;100796.38;5031195;28;20025;-39
2020/12/09 08:50:50;;;;;;;10.75;6.35;;;;;;;13.07;57.87;100799.22;5030754;28;20502;-39
2020/12/09 08:53:16;;;;;;;14.57;6.20;;;;;;;12.96;58.56;100801.03;5031269;28;20029;-42
2020/12/09 08:55:42;;;;;;;7.63;1.40;;;;;;;12.83;60.15;100804.09;5023686;28;20041;-39
2020/12/09 08:58:13;;;;;;;3.95;1.38;;;;;;;12.96;60.05;100808.28;5030943;28;20076;-38
2020/12/09 09:00:39;;;;;;;5.47;1.17;;;;;;;12.89;59.14;100810.38;5031437;28;20053;-40
2020/12/09 09:03:07;;;;;;;8.88;3.70;;;;;;;12.99;58.54;100808.59;5030781;28;20033;-43
2020/12/09 09:05:33;;;;;;;8.15;4.63;;;;;;;13.04;58.59;100805.97;5030820;28;20116;-42
2020/12/09 09:07:58;;;;;;;11.25;3.85;;;;;;;13.14;58.35;100807.91;5035524;28;20624;-43
2020/12/09 09:10:24;;;;;;;3.55;2.00;;;;;;;13.08;58.83;100818.88;5034892;28;20037;-38
2020/12/09 09:12:49;;;;;;;4.55;1.20;;;;;;;13.08;59.04;100811.63;5035044;28;20040;-41
2020/12/09 09:15:17;;;;;;;7.47;2.83;;;;;;;13.05;59.04;100823.72;5035115;28;20108;-40
2020/12/09 09:17:42;;;;;;;5.40;3.67;;;;;;;13.07;58.96;100814.59;5027060;28;20034;-41
2020/12/09 09:20:08;;;;;;;18.77;7.35;;;;;;;13.06;58.20;100813.78;5035119;28;20052;-40
2020/12/09 09:22:33;;;;;;;6.72;4.25;;;;;;;13.02;58.18;100820.72;5034480;28;20036;-39
2020/12/09 09:24:59;;;;;;;3.95;1.58;;;;;;;12.96;58.48;100824.44;5034933;28;20041;-42
2020/12/09 09:27:24;;;;;;;14.88;1.98;;;;;;;13.12;58.07;100828.91;5034552;28;20026;-39
2020/12/09 09:29:50;;;;;;;2.80;1.38;;;;;;;13.17;57.37;100826.25;5034657;28;20063;-43
2020/12/09 09:32:17;;;;;;;19.92;3.95;;;;;;;13.29;57.73;100828.81;5034640;28;20026;-41
2020/12/09 09:34:43;;;;;;;4.25;1.63;;;;;;;13.22;58.09;100839.78;5026933;28;20037;-40
2020/12/09 09:37:09;;;;;;;2.65;1.20;;;;;;;13.19;56.82;100831.41;5034696;28;20086;-45
2020/12/09 09:39:36;;;;;;;5.20;1.58;;;;;;;13.27;56.67;100825.56;5034458;28;20168;-38
2020/12/09 09:42:01;;;;;;;16.15;1.38;;;;;;;13.28;57.08;100829.06;5033793;28;20067;-41
2020/12/09 09:44:27;;;;;;;5.88;0.90;;;;;;;13.31;56.78;100836.63;5034150;28;20033;-40
2020/12/09 09:46:59;;;;;;;6.20;1.77;;;;;;;13.30;57.77;100835.00;5033601;28;20466;-39
2020/12/09 09:49:24;;;;;;;10.02;6.60;;;;;;;13.33;57.51;100843.41;5033276;28;20448;-39
2020/12/09 09:51:52;;;;;;;5.72;3.13;;;;;;;13.30;57.33;100843.88;5033682;28;20037;-41
2020/12/09 09:54:18;;;;;;;4.03;1.17;;;;;;;13.43;56.18;100837.31;5033955;28;20048;-44
2020/12/09 09:56:44;;;;;;;14.18;1.90;;;;;;;13.36;57.35;100847.47;5019966;28;20035;-41
2020/12/09 09:59:09;;;;;;;2.25;1.08;;;;;;;13.29;57.98;100854.91;5030318;28;20046;-43
2020/12/09 10:01:35;;;;;;;15.57;1.42;;;;;;;13.37;57.96;100857.16;5030213;28;20124;-41
2020/12/09 10:04:00;;;;;;;7.22;1.67;;;;;;;13.40;57.29;100856.66;5030502;28;20496;-41
2020/12/09 10:06:26;;;;;;;4.45;1.60;;;;;;;13.33;57.08;100856.06;5030256;28;20064;-41
2020/12/09 10:08:51;;;;;;;2.20;1.38;;;;;;;13.36;56.40;100856.38;5030570;28;20045;-40
2020/12/09 10:11:17;;;;;;;3.28;1.63;;;;;;;13.30;58.37;100860.03;5029598;28;20044;-42
2020/12/09 10:13:43;;;;;;;2.55;0.50;;;;;;;13.30;57.99;100862.72;5030066;28;20473;-39
2020/12/09 10:16:08;;;;;;;3.88;1.20;;;;;;;13.47;56.57;100859.97;5030023;28;20033;-40
2020/12/09 10:18:34;;;;;;;13.48;2.00;;;;;;;13.54;56.34;100862.44;5029914;28;20026;-41
2020/12/09 10:20:59;;;;;;;4.47;2.17;;;;;;;13.38;56.66;100872.28;5029350;28;20025;-42
2020/12/09 10:23:25;;;;;;;3.25;1.38;;;;;;;13.46;56.80;100857.53;5030054;28;20029;-44
2020/12/09 10:25:50;;;;;;;1.45;0.77;;;;;;;13.37;56.66;100863.38;5029620;28;20041;-38
2020/12/09 10:28:16;;;;;;;2.42;1.58;;;;;;;13.36;57.55;100860.94;5030442;28;20067;-40
2020/12/09 10:30:45;;;;;;;4.32;0.77;;;;;;;13.33;57.58;100856.06;5021677;28;20474;-40
2020/12/09 10:33:13;;;;;;;1.13;0.80;;;;;;;13.15;59.72;100863.41;5029873;28;20466;-41
2020/12/09 10:35:42;;;;;;;5.28;1.08;;;;;;;13.26;58.54;100860.81;5029212;28;20515;-42
2020/12/09 10:38:08;;;;;;;0.80;0.30;;;;;;;13.18;58.73;100864.75;5030152;28;20025;-41
2020/12/09 10:40:33;;;;;;;13.57;1.30;;;;;;;13.26;57.09;100866.19;5029917;28;20470;-42
2020/12/09 10:42:59;;;;;;;11.98;1.35;;;;;;;13.34;57.81;100866.59;5030105;28;20477;-40
2020/12/09 10:45:24;;;;;;;2.20;1.27;;;;;;;13.23;58.27;100873.69;5029884;28;20029;-41
2020/12/09 10:47:50;;;;;;;1.08;0.45;;;;;;;13.26;58.86;100871.59;5030024;28;20075;-41
2020/12/09 10:50:15;;;;;;;7.95;1.00;;;;;;;13.28;57.90;100869.44;5028935;28;20107;-43
2020/12/09 10:52:41;;;;;;;2.40;0.95;;;;;;;13.26;58.20;100860.81;5029476;28;20132;-40
2020/12/09 10:55:07;;;;;;;2.92;1.13;;;;;;;13.15;59.93;100868.78;5029399;28;20430;-40
2020/12/09 10:57:33;;;;;;;1.17;0.73;;;;;;;13.20;59.23;100878.78;5029748;28;20036;-43
2020/12/09 10:59:59;;;;;;;3.63;1.58;;;;;;;13.24;58.47;100878.03;5029409;28;20091;-39
2020/12/09 11:02:24;;;;;;;5.22;2.30;;;;;;;13.19;59.58;100880.66;5020905;28;20025;-41
2020/12/09 11:04:50;;;;;;;9.20;2.40;;;;;;;13.26;59.00;100874.28;5026974;28;20041;-39
2020/12/09 11:07:16;;;;;;;2.05;1.38;;;;;;;13.26;57.68;100880.47;5023930;28;20037;-41
2020/12/09 11:09:42;;;;;;;2.33;1.23;;;;;;;13.23;58.76;100884.47;5020839;28;20041;-42
2020/12/09 11:12:08;;;;;;;9.05;1.42;;;;;;;13.24;57.15;100879.91;5027634;28;20037;-41
2020/12/09 11:14:34;;;;;;;1.83;1.00;;;;;;;13.24;57.13;100872.63;5028937;28;20048;-43
2020/12/09 11:17:01;;;;;;;3.53;2.60;;;;;;;13.22;57.74;100882.84;5029687;28;20033;-40
2020/12/09 11:19:27;;;;;;;2.22;1.13;;;;;;;13.21;56.95;100880.41;5029625;28;20049;-38
2020/12/09 11:21:52;;;;;;;4.80;1.42;;;;;;;13.17;59.40;100872.03;5029223;28;20107;-43
2020/12/09 11:24:18;;;;;;;4.85;0.93;;;;;;;13.20;57.70;100863.44;5029499;28;20041;-42
2020/12/09 11:26:44;;;;;;;2.47;0.93;;;;;;;13.22;57.16;100865.91;5029420;28;20112;-42
2020/12/09 11:29:09;;;;;;;6.22;1.48;;;;;;;13.23;58.20;100862.91;5028716;28;20120;-43